EWG215 EDDS-EGKK
Flight info
| Callsign | EWG215 |
|---|---|
| Flight time | 1h 18m |
| Altitude | 36000 |
| Route | VESID4B VESID Y127 TUDGA DCT BANIM L608 LIRSU DCT DENUT L610 TEBRA |
| Aircraft | A20N/M-SDE2E3FGHIRWXY/LB1 |
Departure
| Time | 2026-05-05 16:26 |
|---|---|
| Airport | Stuttgart Airport (EDDS) |
Arrival
| Time | 2026-05-05 17:45 |
|---|---|
| Airport | London Gatwick Airport (EGKK) |
| Time | Latitude | Longitude | Altitude | Speed | Heading |
|---|---|---|---|---|---|
| 2026-05-05 15:20 | 48.69113 | 9.20230 | 1291 ft | 0 kts | 345° |
| 2026-05-05 16:07 | 48.69112 | 9.20230 | 1290 ft | 1 kts | 345° |
| 2026-05-05 16:07 | 48.69096 | 9.20236 | 1290 ft | 3 kts | 347° |
| 2026-05-05 16:08 | 48.69075 | 9.20244 | 1288 ft | 3 kts | 348° |
| 2026-05-05 16:08 | 48.69052 | 9.20247 | 1287 ft | 3 kts | 9° |
| 2026-05-05 16:08 | 48.69032 | 9.20237 | 1286 ft | 3 kts | 39° |
| 2026-05-05 16:08 | 48.69019 | 9.20212 | 1287 ft | 0 kts | 66° |
| 2026-05-05 16:13 | 48.69019 | 9.20213 | 1287 ft | 1 kts | 67° |
| 2026-05-05 16:13 | 48.69048 | 9.20286 | 1289 ft | 14 kts | 40° |
| 2026-05-05 16:13 | 48.69081 | 9.20350 | 1283 ft | 18 kts | 96° |
| 2026-05-05 16:14 | 48.68964 | 9.20625 | 1270 ft | 10 kts | 134° |
| 2026-05-05 16:14 | 48.69021 | 9.21005 | 1268 ft | 21 kts | 76° |
| 2026-05-05 16:15 | 48.69054 | 9.21171 | 1267 ft | 0 kts | 72° |
| 2026-05-05 16:15 | 48.69114 | 9.21474 | 1257 ft | 27 kts | 75° |
| 2026-05-05 16:16 | 48.69226 | 9.22082 | 1244 ft | 31 kts | 75° |
| 2026-05-05 16:16 | 48.69349 | 9.22733 | 1226 ft | 33 kts | 74° |
| 2026-05-05 16:17 | 48.69485 | 9.23438 | 1210 ft | 38 kts | 73° |
| 2026-05-05 16:17 | 48.69539 | 9.23735 | 1203 ft | 28 kts | 73° |
| 2026-05-05 16:18 | 48.69610 | 9.24133 | 1194 ft | 0 kts | 96° |
| 2026-05-05 16:18 | 48.69597 | 9.24191 | 1193 ft | 0 kts | 120° |
| 2026-05-05 16:21 | 48.69539 | 9.24299 | 1190 ft | 0 kts | 155° |
| 2026-05-05 16:22 | 48.69537 | 9.24300 | 1190 ft | 0 kts | 155° |
| 2026-05-05 16:23 | 48.69410 | 9.24332 | 1188 ft | 14 kts | 195° |
| 2026-05-05 16:23 | 48.69383 | 9.24283 | 1189 ft | 0 kts | 251° |
| 2026-05-05 16:25 | 48.69382 | 9.24278 | 1190 ft | 5 kts | 251° |
| 2026-05-05 16:25 | 48.69118 | 9.22870 | 1223 ft | 132 kts | 254° |
| 2026-05-05 16:25 | 48.68826 | 9.21389 | 1528 ft | 153 kts | 254° |
| 2026-05-05 16:26 | 48.68230 | 9.18187 | 2795 ft | 161 kts | 258° |
| 2026-05-05 16:26 | 48.67612 | 9.14318 | 4134 ft | 199 kts | 255° |
| 2026-05-05 16:27 | 48.67333 | 9.12277 | 5274 ft | 203 kts | 267° |
| 2026-05-05 16:27 | 48.67635 | 9.10149 | 6243 ft | 215 kts | 292° |
| 2026-05-05 16:27 | 48.68449 | 9.08154 | 7058 ft | 233 kts | 305° |
| 2026-05-05 16:27 | 48.69695 | 9.06462 | 7905 ft | 251 kts | 327° |
| 2026-05-05 16:28 | 48.71366 | 9.05464 | 8775 ft | 265 kts | 339° |
| 2026-05-05 16:28 | 48.73155 | 9.04583 | 9647 ft | 275 kts | 339° |
| 2026-05-05 16:28 | 48.75002 | 9.03656 | 10462 ft | 283 kts | 336° |
| 2026-05-05 16:28 | 48.76632 | 9.02108 | 11261 ft | 283 kts | 312° |
| 2026-05-05 16:29 | 48.77972 | 8.99879 | 12106 ft | 288 kts | 306° |
| 2026-05-05 16:29 | 48.79255 | 8.97491 | 12966 ft | 295 kts | 306° |
| 2026-05-05 16:29 | 48.80571 | 8.95048 | 13829 ft | 302 kts | 307° |
| 2026-05-05 16:29 | 48.81941 | 8.92581 | 14624 ft | 309 kts | 307° |
| 2026-05-05 16:30 | 48.83356 | 8.90093 | 15438 ft | 315 kts | 308° |
| 2026-05-05 16:30 | 48.84809 | 8.87573 | 16267 ft | 319 kts | 308° |
| 2026-05-05 16:30 | 48.86283 | 8.85027 | 17123 ft | 323 kts | 308° |
| 2026-05-05 16:30 | 48.87774 | 8.82451 | 17999 ft | 326 kts | 308° |
| 2026-05-05 16:31 | 48.89274 | 8.79858 | 18796 ft | 327 kts | 308° |
| 2026-05-05 16:31 | 48.90779 | 8.77250 | 19587 ft | 328 kts | 308° |
| 2026-05-05 16:31 | 48.92282 | 8.74644 | 20389 ft | 327 kts | 308° |
| 2026-05-05 16:31 | 48.93777 | 8.72047 | 21227 ft | 325 kts | 308° |
| 2026-05-05 16:32 | 48.95258 | 8.69474 | 22079 ft | 321 kts | 308° |
| 2026-05-05 16:32 | 48.96714 | 8.66940 | 22950 ft | 315 kts | 307° |
| 2026-05-05 16:32 | 48.98139 | 8.64459 | 23769 ft | 307 kts | 307° |
| 2026-05-05 16:32 | 48.99521 | 8.62050 | 24482 ft | 299 kts | 307° |
| 2026-05-05 16:33 | 49.00893 | 8.59651 | 24934 ft | 301 kts | 307° |
| 2026-05-05 16:33 | 49.02273 | 8.57233 | 25319 ft | 302 kts | 307° |
| 2026-05-05 16:33 | 49.03665 | 8.54834 | 25208 ft | 322 kts | 308° |
| 2026-05-05 16:33 | 49.05255 | 8.52067 | 24173 ft | 378 kts | 307° |
| 2026-05-05 16:34 | 49.07076 | 8.48829 | 23416 ft | 422 kts | 308° |
| 2026-05-05 16:34 | 49.09064 | 8.45307 | 22874 ft | 455 kts | 308° |
| 2026-05-05 16:34 | 49.11196 | 8.41550 | 22645 ft | 478 kts | 308° |
| 2026-05-05 16:34 | 49.13410 | 8.37658 | 22829 ft | 490 kts | 309° |
| 2026-05-05 16:35 | 49.15653 | 8.33714 | 23373 ft | 494 kts | 309° |
| 2026-05-05 16:35 | 49.17907 | 8.29745 | 23846 ft | 496 kts | 309° |
| 2026-05-05 16:35 | 49.20176 | 8.25740 | 24309 ft | 497 kts | 308° |
| 2026-05-05 16:35 | 49.22433 | 8.21746 | 24784 ft | 496 kts | 308° |
| 2026-05-05 16:36 | 49.24688 | 8.17748 | 25267 ft | 495 kts | 308° |
| 2026-05-05 16:36 | 49.26931 | 8.13764 | 25753 ft | 491 kts | 308° |
| 2026-05-05 16:36 | 49.29149 | 8.09818 | 26254 ft | 489 kts | 308° |
| 2026-05-05 16:36 | 49.31363 | 8.05873 | 26761 ft | 486 kts | 308° |
| 2026-05-05 16:37 | 49.33563 | 8.01945 | 27288 ft | 484 kts | 308° |
| 2026-05-05 16:37 | 49.35727 | 7.98077 | 27800 ft | 482 kts | 308° |
| 2026-05-05 16:37 | 49.37930 | 7.94135 | 28345 ft | 479 kts | 308° |
| 2026-05-05 16:37 | 49.40069 | 7.90301 | 28890 ft | 477 kts | 308° |
| 2026-05-05 16:38 | 49.42220 | 7.86440 | 29433 ft | 474 kts | 307° |
| 2026-05-05 16:38 | 49.44355 | 7.82601 | 29991 ft | 471 kts | 307° |
| 2026-05-05 16:38 | 49.46474 | 7.78787 | 30481 ft | 468 kts | 307° |
| 2026-05-05 16:38 | 49.48579 | 7.74991 | 30975 ft | 466 kts | 307° |
| 2026-05-05 16:39 | 49.50688 | 7.71184 | 31488 ft | 463 kts | 307° |
| 2026-05-05 16:39 | 49.52769 | 7.67421 | 32002 ft | 460 kts | 307° |
| 2026-05-05 16:39 | 49.54826 | 7.63697 | 32526 ft | 456 kts | 307° |
| 2026-05-05 16:39 | 49.56877 | 7.59978 | 33065 ft | 452 kts | 306° |
| 2026-05-05 16:40 | 49.58902 | 7.56301 | 33598 ft | 448 kts | 306° |
| 2026-05-05 16:40 | 49.60927 | 7.52615 | 33781 ft | 452 kts | 306° |
| 2026-05-05 16:40 | 49.65026 | 7.45133 | 33820 ft | 467 kts | 306° |
| 2026-05-05 16:41 | 49.69282 | 7.37350 | 33820 ft | 480 kts | 306° |
| 2026-05-05 16:41 | 49.73630 | 7.29383 | 33826 ft | 488 kts | 306° |
| 2026-05-05 16:42 | 49.78022 | 7.21310 | 33823 ft | 492 kts | 306° |
| 2026-05-05 16:42 | 49.82436 | 7.13171 | 33829 ft | 495 kts | 306° |
| 2026-05-05 16:43 | 49.86848 | 7.05009 | 33821 ft | 496 kts | 306° |
| 2026-05-05 16:43 | 49.89043 | 7.00945 | 33825 ft | 481 kts | 306° |
| 2026-05-05 16:43 | 49.91144 | 6.97055 | 33822 ft | 465 kts | 305° |
| 2026-05-05 16:44 | 49.95338 | 6.89233 | 33801 ft | 475 kts | 305° |
| 2026-05-05 16:44 | 49.99556 | 6.81349 | 33806 ft | 474 kts | 305° |
| 2026-05-05 16:45 | 50.03771 | 6.73455 | 33804 ft | 473 kts | 305° |
| 2026-05-05 16:45 | 50.07965 | 6.65576 | 33804 ft | 473 kts | 304° |
| 2026-05-05 16:46 | 50.12156 | 6.57679 | 33799 ft | 472 kts | 304° |
| 2026-05-05 16:46 | 50.16333 | 6.49790 | 33802 ft | 472 kts | 304° |
| 2026-05-05 16:47 | 50.20150 | 6.41603 | 33803 ft | 466 kts | 296° |
| 2026-05-05 16:47 | 50.23530 | 6.32977 | 33809 ft | 466 kts | 296° |
| 2026-05-05 16:48 | 50.26943 | 6.24361 | 33812 ft | 466 kts | 296° |
| 2026-05-05 16:48 | 50.30340 | 6.15721 | 33826 ft | 466 kts | 296° |
| 2026-05-05 16:49 | 50.33723 | 6.07069 | 33824 ft | 466 kts | 296° |
| 2026-05-05 16:49 | 50.37097 | 5.98408 | 33829 ft | 465 kts | 296° |
| 2026-05-05 16:50 | 50.40467 | 5.89729 | 33830 ft | 466 kts | 296° |
| 2026-05-05 16:50 | 50.43833 | 5.81033 | 33837 ft | 466 kts | 296° |
| 2026-05-05 16:51 | 50.47187 | 5.72337 | 33847 ft | 466 kts | 296° |
| 2026-05-05 16:51 | 50.50517 | 5.63672 | 33853 ft | 466 kts | 296° |
| 2026-05-05 16:52 | 50.53857 | 5.54951 | 33854 ft | 465 kts | 296° |
| 2026-05-05 16:52 | 50.57189 | 5.46222 | 33856 ft | 465 kts | 296° |
| 2026-05-05 16:53 | 50.60516 | 5.37478 | 33853 ft | 465 kts | 296° |
| 2026-05-05 16:53 | 50.63835 | 5.28727 | 33859 ft | 465 kts | 296° |
| 2026-05-05 16:54 | 50.67145 | 5.19969 | 33851 ft | 465 kts | 296° |
| 2026-05-05 16:54 | 50.70434 | 5.11238 | 33859 ft | 466 kts | 296° |
| 2026-05-05 16:55 | 50.73738 | 5.02436 | 33862 ft | 466 kts | 296° |
| 2026-05-05 16:55 | 50.76339 | 4.95487 | 33868 ft | 466 kts | 296° |
| 2026-05-05 17:05 | 50.77468 | 4.92466 | 33866 ft | 464 kts | 295° |
| 2026-05-05 17:05 | 50.80751 | 4.83658 | 33878 ft | 465 kts | 295° |
| 2026-05-05 17:06 | 50.84032 | 4.74819 | 33881 ft | 465 kts | 295° |
| 2026-05-05 17:06 | 50.87311 | 4.65960 | 33883 ft | 466 kts | 295° |
| 2026-05-05 17:07 | 50.90559 | 4.57158 | 33884 ft | 465 kts | 295° |
| 2026-05-05 17:07 | 50.93835 | 4.48238 | 33885 ft | 473 kts | 295° |
| 2026-05-05 17:08 | 50.97142 | 4.39213 | 33887 ft | 473 kts | 295° |
| 2026-05-05 17:08 | 51.00439 | 4.30183 | 33884 ft | 473 kts | 295° |
| 2026-05-05 17:09 | 51.03727 | 4.21143 | 33881 ft | 472 kts | 295° |
| 2026-05-05 17:09 | 51.07016 | 4.12070 | 33878 ft | 473 kts | 295° |
| 2026-05-05 17:10 | 51.10287 | 4.03012 | 33879 ft | 472 kts | 295° |
| 2026-05-05 17:10 | 51.13552 | 3.93939 | 33872 ft | 472 kts | 295° |
| 2026-05-05 17:11 | 51.16811 | 3.84851 | 33867 ft | 472 kts | 295° |
| 2026-05-05 17:11 | 51.20039 | 3.75818 | 33890 ft | 472 kts | 295° |
| 2026-05-05 17:12 | 51.23007 | 3.66516 | 33876 ft | 467 kts | 287° |
| 2026-05-05 17:12 | 51.24819 | 3.56658 | 33889 ft | 461 kts | 277° |
| 2026-05-05 17:13 | 51.26137 | 3.46643 | 33889 ft | 461 kts | 278° |
| 2026-05-05 17:13 | 51.27472 | 3.36611 | 33888 ft | 461 kts | 278° |
| 2026-05-05 17:14 | 51.28766 | 3.26578 | 33900 ft | 461 kts | 277° |
| 2026-05-05 17:14 | 51.30046 | 3.16541 | 33906 ft | 461 kts | 277° |
| 2026-05-05 17:15 | 51.31317 | 3.06516 | 33909 ft | 460 kts | 277° |
| 2026-05-05 17:15 | 51.32582 | 2.96472 | 33912 ft | 461 kts | 277° |
| 2026-05-05 17:16 | 51.33838 | 2.86428 | 33986 ft | 461 kts | 277° |
| 2026-05-05 17:16 | 51.34457 | 2.81449 | 34103 ft | 462 kts | 277° |
| 2026-05-05 17:16 | 51.35082 | 2.76402 | 34229 ft | 463 kts | 277° |
| 2026-05-05 17:17 | 51.35707 | 2.71343 | 34351 ft | 463 kts | 277° |
| 2026-05-05 17:17 | 51.36331 | 2.66289 | 34448 ft | 463 kts | 277° |
| 2026-05-05 17:17 | 51.37576 | 2.56170 | 34548 ft | 463 kts | 277° |
| 2026-05-05 17:18 | 51.38810 | 2.46045 | 34588 ft | 463 kts | 277° |
| 2026-05-05 17:18 | 51.40035 | 2.35927 | 34604 ft | 463 kts | 277° |
| 2026-05-05 17:19 | 51.41253 | 2.25781 | 34617 ft | 463 kts | 277° |
| 2026-05-05 17:19 | 51.42489 | 2.15631 | 34614 ft | 464 kts | 278° |
| 2026-05-05 17:20 | 51.43727 | 2.05483 | 34622 ft | 464 kts | 278° |
| 2026-05-05 17:20 | 51.44949 | 1.95317 | 34623 ft | 464 kts | 277° |
| 2026-05-05 17:21 | 51.46117 | 1.85292 | 34447 ft | 451 kts | 277° |
| 2026-05-05 17:21 | 51.46685 | 1.80408 | 34023 ft | 444 kts | 277° |
| 2026-05-05 17:22 | 51.47811 | 1.70665 | 32133 ft | 444 kts | 277° |
| 2026-05-05 17:22 | 51.48293 | 1.65732 | 30876 ft | 451 kts | 271° |
| 2026-05-05 17:22 | 51.48249 | 1.60674 | 29586 ft | 457 kts | 261° |
| 2026-05-05 17:22 | 51.47608 | 1.55665 | 28176 ft | 460 kts | 251° |
| 2026-05-05 17:23 | 51.46513 | 1.50817 | 26841 ft | 464 kts | 248° |
| 2026-05-05 17:23 | 51.45390 | 1.45983 | 25558 ft | 465 kts | 248° |
| 2026-05-05 17:23 | 51.44178 | 1.41240 | 24533 ft | 454 kts | 241° |
| 2026-05-05 17:23 | 51.42472 | 1.37079 | 23598 ft | 442 kts | 229° |
| 2026-05-05 17:24 | 51.40300 | 1.33693 | 22512 ft | 432 kts | 217° |
| 2026-05-05 17:24 | 51.37893 | 1.30867 | 21467 ft | 424 kts | 216° |
| 2026-05-05 17:24 | 51.35532 | 1.28107 | 20448 ft | 417 kts | 216° |
| 2026-05-05 17:24 | 51.33209 | 1.25378 | 19448 ft | 411 kts | 216° |
| 2026-05-05 17:25 | 51.30927 | 1.22690 | 18500 ft | 405 kts | 216° |
| 2026-05-05 17:25 | 51.29403 | 1.20894 | 17922 ft | 400 kts | 216° |
| 2026-05-05 17:25 | 51.26494 | 1.17469 | 17020 ft | 383 kts | 216° |
| 2026-05-05 17:25 | 51.24449 | 1.14859 | 16354 ft | 372 kts | 225° |
| 2026-05-05 17:26 | 51.22926 | 1.11611 | 15739 ft | 362 kts | 241° |
| 2026-05-05 17:26 | 51.21759 | 1.08097 | 15119 ft | 354 kts | 242° |
| 2026-05-05 17:26 | 51.20627 | 1.04651 | 14509 ft | 347 kts | 242° |
| 2026-05-05 17:26 | 51.19527 | 1.01293 | 14103 ft | 335 kts | 242° |
| 2026-05-05 17:27 | 51.18474 | 0.98074 | 13750 ft | 322 kts | 242° |
| 2026-05-05 17:27 | 51.17441 | 0.94925 | 13096 ft | 319 kts | 242° |
| 2026-05-05 17:27 | 51.16418 | 0.91809 | 12442 ft | 316 kts | 242° |
| 2026-05-05 17:27 | 51.15402 | 0.88720 | 11800 ft | 313 kts | 242° |
| 2026-05-05 17:28 | 51.14394 | 0.85660 | 11174 ft | 311 kts | 242° |
| 2026-05-05 17:28 | 51.13394 | 0.82627 | 10560 ft | 308 kts | 242° |
| 2026-05-05 17:28 | 51.12404 | 0.79630 | 9959 ft | 305 kts | 243° |
| 2026-05-05 17:28 | 51.11418 | 0.76651 | 9323 ft | 302 kts | 243° |
| 2026-05-05 17:29 | 51.10460 | 0.73758 | 9018 ft | 288 kts | 243° |
| 2026-05-05 17:29 | 51.09540 | 0.70987 | 9055 ft | 285 kts | 243° |
| 2026-05-05 17:29 | 51.08610 | 0.68181 | 9058 ft | 286 kts | 243° |
| 2026-05-05 17:29 | 51.07677 | 0.65369 | 9074 ft | 296 kts | 243° |
| 2026-05-05 17:30 | 51.06671 | 0.62337 | 9070 ft | 319 kts | 243° |
| 2026-05-05 17:30 | 51.05635 | 0.59223 | 9077 ft | 318 kts | 243° |
| 2026-05-05 17:30 | 51.04599 | 0.56117 | 9082 ft | 318 kts | 243° |
| 2026-05-05 17:30 | 51.03559 | 0.53003 | 9078 ft | 318 kts | 243° |
| 2026-05-05 17:31 | 51.02525 | 0.49908 | 9075 ft | 314 kts | 243° |
| 2026-05-05 17:31 | 51.01527 | 0.46928 | 9072 ft | 298 kts | 243° |
| 2026-05-05 17:31 | 51.00582 | 0.44108 | 9063 ft | 281 kts | 243° |
| 2026-05-05 17:31 | 50.99690 | 0.41448 | 9056 ft | 265 kts | 243° |
| 2026-05-05 17:32 | 50.99047 | 0.39532 | 9053 ft | 253 kts | 243° |
| 2026-05-05 17:32 | 50.98231 | 0.37101 | 9049 ft | 252 kts | 243° |
| 2026-05-05 17:32 | 50.97403 | 0.34632 | 9037 ft | 253 kts | 243° |
| 2026-05-05 17:32 | 50.96576 | 0.32174 | 9029 ft | 253 kts | 243° |
| 2026-05-05 17:33 | 50.95747 | 0.29712 | 9018 ft | 253 kts | 243° |
| 2026-05-05 17:33 | 50.95188 | 0.27104 | 9016 ft | 250 kts | 268° |
| 2026-05-05 17:33 | 50.95485 | 0.24428 | 9010 ft | 249 kts | 297° |
| 2026-05-05 17:33 | 50.96475 | 0.22194 | 9009 ft | 248 kts | 309° |
| 2026-05-05 17:34 | 50.97550 | 0.20057 | 9008 ft | 248 kts | 309° |
| 2026-05-05 17:34 | 50.98625 | 0.17914 | 9014 ft | 248 kts | 309° |
| 2026-05-05 17:34 | 50.99692 | 0.15765 | 9010 ft | 248 kts | 309° |
| 2026-05-05 17:34 | 51.00615 | 0.13461 | 9005 ft | 248 kts | 290° |
| 2026-05-05 17:35 | 51.00852 | 0.10752 | 8866 ft | 252 kts | 271° |
| 2026-05-05 17:35 | 51.00857 | 0.07955 | 8537 ft | 254 kts | 271° |
| 2026-05-05 17:35 | 51.00851 | 0.05145 | 8139 ft | 255 kts | 271° |
| 2026-05-05 17:35 | 51.00839 | 0.02377 | 8064 ft | 242 kts | 271° |
| 2026-05-05 17:36 | 51.00825 | -0.00333 | 8091 ft | 250 kts | 271° |
| 2026-05-05 17:36 | 51.00790 | -0.03097 | 7809 ft | 251 kts | 271° |
| 2026-05-05 17:36 | 51.00745 | -0.05906 | 7315 ft | 257 kts | 271° |
| 2026-05-05 17:36 | 51.00698 | -0.08778 | 6818 ft | 263 kts | 271° |
| 2026-05-05 17:37 | 51.00648 | -0.11708 | 6328 ft | 268 kts | 271° |
| 2026-05-05 17:37 | 51.00615 | -0.13677 | 5985 ft | 271 kts | 271° |
| 2026-05-05 17:37 | 51.00547 | -0.17702 | 5296 ft | 275 kts | 271° |
| 2026-05-05 17:37 | 51.00499 | -0.20725 | 4795 ft | 278 kts | 271° |
| 2026-05-05 17:38 | 51.00453 | -0.23806 | 4275 ft | 281 kts | 271° |
| 2026-05-05 17:38 | 51.00411 | -0.26923 | 3762 ft | 284 kts | 271° |
| 2026-05-05 17:38 | 51.00377 | -0.30070 | 3271 ft | 285 kts | 271° |
| 2026-05-05 17:38 | 51.00349 | -0.33184 | 3045 ft | 277 kts | 271° |
| 2026-05-05 17:39 | 51.00324 | -0.36160 | 2993 ft | 262 kts | 271° |
| 2026-05-05 17:39 | 51.00439 | -0.38946 | 2990 ft | 245 kts | 289° |
| 2026-05-05 17:39 | 51.01267 | -0.41151 | 2991 ft | 226 kts | 320° |
| 2026-05-05 17:39 | 51.02628 | -0.42346 | 2999 ft | 227 kts | 340° |
| 2026-05-05 17:40 | 51.04086 | -0.43234 | 2996 ft | 224 kts | 341° |
| 2026-05-05 17:40 | 51.05545 | -0.44117 | 2989 ft | 225 kts | 341° |
| 2026-05-05 17:40 | 51.07043 | -0.44813 | 2808 ft | 224 kts | 359° |
| 2026-05-05 17:40 | 51.08529 | -0.44300 | 2561 ft | 220 kts | 28° |
| 2026-05-05 17:41 | 51.09830 | -0.43054 | 2304 ft | 217 kts | 37° |
| 2026-05-05 17:41 | 51.10981 | -0.41541 | 2055 ft | 210 kts | 41° |
| 2026-05-05 17:41 | 51.12000 | -0.40022 | 1999 ft | 191 kts | 55° |
| 2026-05-05 17:41 | 51.12444 | -0.38130 | 2001 ft | 179 kts | 80° |
| 2026-05-05 17:42 | 51.12566 | -0.36812 | 2004 ft | 176 kts | 80° |
| 2026-05-05 17:42 | 51.12745 | -0.34988 | 2006 ft | 158 kts | 79° |
| 2026-05-05 17:42 | 51.12921 | -0.33252 | 2003 ft | 164 kts | 79° |
| 2026-05-05 17:42 | 51.13105 | -0.31464 | 2001 ft | 161 kts | 79° |
| 2026-05-05 17:43 | 51.13335 | -0.29715 | 1951 ft | 156 kts | 76° |
| 2026-05-05 17:43 | 51.13546 | -0.28075 | 1533 ft | 147 kts | 78° |
| 2026-05-05 17:43 | 51.13754 | -0.26502 | 1204 ft | 145 kts | 75° |
| 2026-05-05 17:43 | 51.13980 | -0.24972 | 789 ft | 141 kts | 76° |
| 2026-05-05 17:44 | 51.14187 | -0.23513 | 566 ft | 131 kts | 77° |
| 2026-05-05 17:44 | 51.14388 | -0.22169 | 416 ft | 121 kts | 77° |
| 2026-05-05 17:44 | 51.14559 | -0.20898 | 276 ft | 118 kts | 78° |
| 2026-05-05 17:44 | 51.14733 | -0.19627 | 216 ft | 111 kts | 78° |
| 2026-05-05 17:45 | 51.14829 | -0.18931 | 218 ft | 31 kts | 78° |
| 2026-05-05 17:45 | 51.14899 | -0.18601 | 216 ft | 31 kts | 53° |
| 2026-05-05 17:45 | 51.15014 | -0.18369 | 217 ft | 22 kts | 52° |
| 2026-05-05 17:45 | 51.15064 | -0.18272 | 210 ft | 0 kts | 49° |
| 2026-05-05 17:48 | 51.15078 | -0.18246 | 208 ft | 9 kts | 49° |
| 2026-05-05 17:48 | 51.15133 | -0.18191 | 213 ft | 8 kts | 346° |
| 2026-05-05 17:48 | 51.15167 | -0.18203 | 205 ft | 2 kts | 347° |
| 2026-05-05 17:49 | 51.15226 | -0.18223 | 205 ft | 15 kts | 348° |
| 2026-05-05 17:49 | 51.15345 | -0.18263 | 211 ft | 19 kts | 348° |
| 2026-05-05 17:49 | 51.15485 | -0.18310 | 204 ft | 22 kts | 348° |
| 2026-05-05 17:49 | 51.15613 | -0.18354 | 204 ft | 10 kts | 357° |
| 2026-05-05 17:50 | 51.15650 | -0.18307 | 209 ft | 0 kts | 69° |
| 2026-05-05 17:51 | 51.15650 | -0.18305 | 210 ft | 3 kts | 69° |
| 2026-05-05 17:51 | 51.15678 | -0.18192 | 215 ft | 0 kts | 53° |
| 2026-05-05 17:52 | 51.15694 | -0.18091 | 213 ft | 17 kts | 78° |
| 2026-05-05 17:52 | 51.15755 | -0.18055 | 211 ft | 11 kts | 347° |
| 2026-05-05 17:52 | 51.15803 | -0.18045 | 217 ft | 4 kts | 78° |
| 2026-05-05 17:52 | 51.15813 | -0.17971 | 204 ft | 10 kts | 77° |
| 2026-05-05 17:53 | 51.15816 | -0.17953 | 204 ft | 0 kts | 77° |